sensor_id;sensor_type;location;lat;lon;timestamp;temperature;humidity
27779;DHT22;30234;48.090;11.464;2023-10-08T00:01:32;17.30;58.90
27779;DHT22;30234;48.090;11.464;2023-10-08T00:05:37;17.50;58.50
27779;DHT22;30234;48.090;11.464;2023-10-08T00:09:39;17.60;58.70
27779;DHT22;30234;48.090;11.464;2023-10-08T00:13:40;17.70;58.10
27779;DHT22;30234;48.090;11.464;2023-10-08T00:17:41;17.80;58.10
27779;DHT22;30234;48.090;11.464;2023-10-08T00:21:46;17.90;58.10
27779;DHT22;30234;48.090;11.464;2023-10-08T00:25:48;17.90;58.10
27779;DHT22;30234;48.090;11.464;2023-10-08T00:29:50;18.00;57.70
27779;DHT22;30234;48.090;11.464;2023-10-08T00:33:52;18.10;57.70
27779;DHT22;30234;48.090;11.464;2023-10-08T00:37:54;18.20;57.50
27779;DHT22;30234;48.090;11.464;2023-10-08T00:42:00;18.20;57.70
27779;DHT22;30234;48.090;11.464;2023-10-08T00:46:07;18.40;57.80
27779;DHT22;30234;48.090;11.464;2023-10-08T00:50:26;18.40;57.00
27779;DHT22;30234;48.090;11.464;2023-10-08T00:54:43;18.60;56.70
27779;DHT22;30234;48.090;11.464;2023-10-08T00:59:07;18.70;56.10
27779;DHT22;30234;48.090;11.464;2023-10-08T01:03:13;18.80;56.00
27779;DHT22;30234;48.090;11.464;2023-10-08T01:07:17;18.90;55.70
27779;DHT22;30234;48.090;11.464;2023-10-08T01:11:20;18.90;56.00
27779;DHT22;30234;48.090;11.464;2023-10-08T01:15:31;19.00;56.10
27779;DHT22;30234;48.090;11.464;2023-10-08T01:19:36;19.10;56.20
27779;DHT22;30234;48.090;11.464;2023-10-08T01:23:44;19.10;56.30
27779;DHT22;30234;48.090;11.464;2023-10-08T01:27:47;19.20;56.30
27779;DHT22;30234;48.090;11.464;2023-10-08T01:31:48;19.10;55.90
27779;DHT22;30234;48.090;11.464;2023-10-08T01:35:54;19.20;55.80
27779;DHT22;30234;48.090;11.464;2023-10-08T01:39:55;19.10;56.00
27779;DHT22;30234;48.090;11.464;2023-10-08T01:44:01;19.00;56.00
27779;DHT22;30234;48.090;11.464;2023-10-08T01:48:08;19.00;55.70
27779;DHT22;30234;48.090;11.464;2023-10-08T01:52:13;18.90;55.50
27779;DHT22;30234;48.090;11.464;2023-10-08T01:56:23;18.90;55.40
27779;DHT22;30234;48.090;11.464;2023-10-08T02:00:24;18.90;55.30
27779;DHT22;30234;48.090;11.464;2023-10-08T02:04:27;18.90;55.70
27779;DHT22;30234;48.090;11.464;2023-10-08T02:08:27;18.90;55.80
27779;DHT22;30234;48.090;11.464;2023-10-08T02:12:30;18.90;56.10
27779;DHT22;30234;48.090;11.464;2023-10-08T02:16:31;18.90;56.20
27779;DHT22;30234;48.090;11.464;2023-10-08T02:20:34;18.80;56.50
27779;DHT22;30234;48.090;11.464;2023-10-08T02:24:35;18.90;56.50
27779;DHT22;30234;48.090;11.464;2023-10-08T02:28:37;19.00;56.70
27779;DHT22;30234;48.090;11.464;2023-10-08T02:32:39;19.00;56.80
27779;DHT22;30234;48.090;11.464;2023-10-08T02:36:43;19.00;56.90
27779;DHT22;30234;48.090;11.464;2023-10-08T02:40:44;19.00;57.20
27779;DHT22;30234;48.090;11.464;2023-10-08T02:44:47;18.90;57.80
27779;DHT22;30234;48.090;11.464;2023-10-08T02:48:48;18.80;57.80
27779;DHT22;30234;48.090;11.464;2023-10-08T02:52:49;18.80;57.70
27779;DHT22;30234;48.090;11.464;2023-10-08T02:56:51;19.00;57.80
27779;DHT22;30234;48.090;11.464;2023-10-08T03:00:55;18.80;58.20
27779;DHT22;30234;48.090;11.464;2023-10-08T03:04:56;18.80;58.60
27779;DHT22;30234;48.090;11.464;2023-10-08T03:08:58;18.80;59.40
27779;DHT22;30234;48.090;11.464;2023-10-08T03:13:05;18.70;58.90
27779;DHT22;30234;48.090;11.464;2023-10-08T03:17:06;18.70;59.30
27779;DHT22;30234;48.090;11.464;2023-10-08T03:21:08;18.70;59.70
27779;DHT22;30234;48.090;11.464;2023-10-08T03:25:22;18.60;60.00
27779;DHT22;30234;48.090;11.464;2023-10-08T03:29:24;18.60;60.00
27779;DHT22;30234;48.090;11.464;2023-10-08T03:33:35;18.70;59.90
27779;DHT22;30234;48.090;11.464;2023-10-08T03:37:38;18.60;59.80
27779;DHT22;30234;48.090;11.464;2023-10-08T03:41:46;18.70;59.50
27779;DHT22;30234;48.090;11.464;2023-10-08T03:46:06;18.80;59.50
27779;DHT22;30234;48.090;11.464;2023-10-08T03:50:08;18.80;59.40
27779;DHT22;30234;48.090;11.464;2023-10-08T03:54:10;18.80;59.30
27779;DHT22;30234;48.090;11.464;2023-10-08T03:58:17;18.70;59.80
27779;DHT22;30234;48.090;11.464;2023-10-08T04:02:29;18.60;60.50
27779;DHT22;30234;48.090;11.464;2023-10-08T04:06:54;18.40;60.80
27779;DHT22;30234;48.090;11.464;2023-10-08T04:10:56;18.40;61.50
27779;DHT22;30234;48.090;11.464;2023-10-08T04:15:08;18.20;61.70
27779;DHT22;30234;48.090;11.464;2023-10-08T04:19:10;18.10;62.30
27779;DHT22;30234;48.090;11.464;2023-10-08T04:23:11;18.00;62.80
27779;DHT22;30234;48.090;11.464;2023-10-08T04:27:18;17.90;62.50
27779;DHT22;30234;48.090;11.464;2023-10-08T04:31:22;17.80;63.00
27779;DHT22;30234;48.090;11.464;2023-10-08T04:35:45;17.70;62.30
27779;DHT22;30234;48.090;11.464;2023-10-08T04:39:51;18.00;62.30
27779;DHT22;30234;48.090;11.464;2023-10-08T04:43:59;18.20;61.20
27779;DHT22;30234;48.090;11.464;2023-10-08T04:48:05;18.30;61.20
27779;DHT22;30234;48.090;11.464;2023-10-08T04:52:11;18.30;61.20
27779;DHT22;30234;48.090;11.464;2023-10-08T04:56:15;18.20;61.80
27779;DHT22;30234;48.090;11.464;2023-10-08T05:00:23;18.10;62.30
27779;DHT22;30234;48.090;11.464;2023-10-08T05:04:42;18.10;62.00
27779;DHT22;30234;48.090;11.464;2023-10-08T05:09:10;18.00;62.40
27779;DHT22;30234;48.090;11.464;2023-10-08T05:13:21;18.00;62.40
27779;DHT22;30234;48.090;11.464;2023-10-08T05:17:31;18.00;62.40
27779;DHT22;30234;48.090;11.464;2023-10-08T05:21:46;18.10;62.10
27779;DHT22;30234;48.090;11.464;2023-10-08T05:26:03;18.30;61.70
27779;DHT22;30234;48.090;11.464;2023-10-08T05:30:07;18.50;61.30
27779;DHT22;30234;48.090;11.464;2023-10-08T05:34:16;18.30;61.30
27779;DHT22;30234;48.090;11.464;2023-10-08T05:38:33;18.40;61.40
27779;DHT22;30234;48.090;11.464;2023-10-08T05:42:33;18.50;62.00
27779;DHT22;30234;48.090;11.464;2023-10-08T05:46:46;18.50;61.80
27779;DHT22;30234;48.090;11.464;2023-10-08T05:50:55;18.60;61.70
27779;DHT22;30234;48.090;11.464;2023-10-08T05:55:13;18.50;61.60
27779;DHT22;30234;48.090;11.464;2023-10-08T05:59:39;18.60;62.00
27779;DHT22;30234;48.090;11.464;2023-10-08T06:03:55;18.20;63.30
27779;DHT22;30234;48.090;11.464;2023-10-08T06:08:21;18.00;64.50
27779;DHT22;30234;48.090;11.464;2023-10-08T06:12:39;17.90;65.30
27779;DHT22;30234;48.090;11.464;2023-10-08T06:16:53;18.10;63.70
27779;DHT22;30234;48.090;11.464;2023-10-08T06:21:13;18.10;63.50
27779;DHT22;30234;48.090;11.464;2023-10-08T06:25:15;18.20;64.50
27779;DHT22;30234;48.090;11.464;2023-10-08T06:29:18;18.40;63.60
27779;DHT22;30234;48.090;11.464;2023-10-08T06:33:20;18.60;64.00
27779;DHT22;30234;48.090;11.464;2023-10-08T06:37:21;18.70;63.50
27779;DHT22;30234;48.090;11.464;2023-10-08T06:41:22;18.70;64.30
27779;DHT22;30234;48.090;11.464;2023-10-08T06:45:30;18.80;64.00
27779;DHT22;30234;48.090;11.464;2023-10-08T06:49:33;18.90;63.80
27779;DHT22;30234;48.090;11.464;2023-10-08T06:53:35;19.10;64.00
27779;DHT22;30234;48.090;11.464;2023-10-08T06:57:39;20.10;63.60
27779;DHT22;30234;48.090;11.464;2023-10-08T07:01:40;22.40;59.50
27779;DHT22;30234;48.090;11.464;2023-10-08T07:05:48;22.80;57.70
27779;DHT22;30234;48.090;11.464;2023-10-08T07:09:58;24.20;54.70
27779;DHT22;30234;48.090;11.464;2023-10-08T07:14:03;22.70;56.30
27779;DHT22;30234;48.090;11.464;2023-10-08T07:18:05;21.30;57.70
27779;DHT22;30234;48.090;11.464;2023-10-08T07:22:10;20.70;59.30
27779;DHT22;30234;48.090;11.464;2023-10-08T07:26:23;21.00;59.40
27779;DHT22;30234;48.090;11.464;2023-10-08T07:30:37;21.90;58.30
27779;DHT22;30234;48.090;11.464;2023-10-08T07:34:44;22.50;56.50
27779;DHT22;30234;48.090;11.464;2023-10-08T07:38:45;23.10;56.00
27779;DHT22;30234;48.090;11.464;2023-10-08T07:42:47;22.90;55.70
27779;DHT22;30234;48.090;11.464;2023-10-08T07:46:52;22.60;56.00
27779;DHT22;30234;48.090;11.464;2023-10-08T07:50:55;22.30;56.80
27779;DHT22;30234;48.090;11.464;2023-10-08T07:54:57;22.30;57.00
27779;DHT22;30234;48.090;11.464;2023-10-08T07:58:58;22.10;57.70
27779;DHT22;30234;48.090;11.464;2023-10-08T08:02:59;21.40;58.30
27779;DHT22;30234;48.090;11.464;2023-10-08T08:06:59;21.20;59.80
27779;DHT22;30234;48.090;11.464;2023-10-08T08:11:03;20.90;59.40
27779;DHT22;30234;48.090;11.464;2023-10-08T08:15:12;20.60;60.70
27779;DHT22;30234;48.090;11.464;2023-10-08T08:19:17;20.50;61.60
27779;DHT22;30234;48.090;11.464;2023-10-08T08:23:24;20.70;61.50
27779;DHT22;30234;48.090;11.464;2023-10-08T08:27:25;21.00;61.00
27779;DHT22;30234;48.090;11.464;2023-10-08T08:31:32;21.30;61.40
27779;DHT22;30234;48.090;11.464;2023-10-08T08:35:35;21.40;60.90
27779;DHT22;30234;48.090;11.464;2023-10-08T08:39:37;21.60;61.70
27779;DHT22;30234;48.090;11.464;2023-10-08T08:43:42;21.60;61.70
27779;DHT22;30234;48.090;11.464;2023-10-08T08:47:47;21.50;62.50
27779;DHT22;30234;48.090;11.464;2023-10-08T08:51:48;21.70;62.20
27779;DHT22;30234;48.090;11.464;2023-10-08T08:55:54;21.60;62.70
27779;DHT22;30234;48.090;11.464;2023-10-08T08:59:58;21.70;62.20
27779;DHT22;30234;48.090;11.464;2023-10-08T09:04:00;21.60;63.10
27779;DHT22;30234;48.090;11.464;2023-10-08T09:08:06;21.60;63.70
27779;DHT22;30234;48.090;11.464;2023-10-08T09:12:07;21.40;64.00
27779;DHT22;30234;48.090;11.464;2023-10-08T09:16:15;21.50;64.40
27779;DHT22;30234;48.090;11.464;2023-10-08T09:20:17;21.90;64.20
27779;DHT22;30234;48.090;11.464;2023-10-08T09:24:20;21.90;64.20
27779;DHT22;30234;48.090;11.464;2023-10-08T09:28:24;21.80;64.00
27779;DHT22;30234;48.090;11.464;2023-10-08T09:32:25;21.70;64.30
27779;DHT22;30234;48.090;11.464;2023-10-08T09:36:26;21.60;63.70
27779;DHT22;30234;48.090;11.464;2023-10-08T09:40:33;21.50;65.00
27779;DHT22;30234;48.090;11.464;2023-10-08T09:44:36;21.50;65.30
27779;DHT22;30234;48.090;11.464;2023-10-08T09:48:38;21.60;65.00
27779;DHT22;30234;48.090;11.464;2023-10-08T09:52:56;21.80;65.40
27779;DHT22;30234;48.090;11.464;2023-10-08T09:57:04;22.50;63.20
27779;DHT22;30234;48.090;11.464;2023-10-08T10:01:07;23.30;62.30
27779;DHT22;30234;48.090;11.464;2023-10-08T10:05:11;23.60;61.20
27779;DHT22;30234;48.090;11.464;2023-10-08T10:09:21;24.10;62.00
27779;DHT22;30234;48.090;11.464;2023-10-08T10:13:27;24.80;60.80
27779;DHT22;30234;48.090;11.464;2023-10-08T10:17:29;25.20;59.70
27779;DHT22;30234;48.090;11.464;2023-10-08T10:21:32;25.40;60.70
27779;DHT22;30234;48.090;11.464;2023-10-08T10:25:36;24.80;61.00
27779;DHT22;30234;48.090;11.464;2023-10-08T10:29:43;24.70;60.70
27779;DHT22;30234;48.090;11.464;2023-10-08T10:33:43;24.60;61.50
27779;DHT22;30234;48.090;11.464;2023-10-08T10:37:47;24.40;62.60
27779;DHT22;30234;48.090;11.464;2023-10-08T10:41:55;24.20;62.90
27779;DHT22;30234;48.090;11.464;2023-10-08T10:45:59;23.90;64.30
27779;DHT22;30234;48.090;11.464;2023-10-08T10:50:21;23.60;64.40
27779;DHT22;30234;48.090;11.464;2023-10-08T10:54:31;23.10;64.90
27779;DHT22;30234;48.090;11.464;2023-10-08T10:58:36;22.70;66.30
27779;DHT22;30234;48.090;11.464;2023-10-08T11:02:40;22.60;67.30
27779;DHT22;30234;48.090;11.464;2023-10-08T11:06:44;22.50;67.20
27779;DHT22;30234;48.090;11.464;2023-10-08T11:10:47;22.40;67.90
27779;DHT22;30234;48.090;11.464;2023-10-08T11:14:58;22.30;68.10
27779;DHT22;30234;48.090;11.464;2023-10-08T11:18:59;22.20;68.00
27779;DHT22;30234;48.090;11.464;2023-10-08T11:23:07;22.30;68.50
27779;DHT22;30234;48.090;11.464;2023-10-08T11:27:20;22.30;68.80
27779;DHT22;30234;48.090;11.464;2023-10-08T11:31:35;22.10;69.00
27779;DHT22;30234;48.090;11.464;2023-10-08T11:35:37;21.80;69.40
27779;DHT22;30234;48.090;11.464;2023-10-08T11:39:52;21.60;69.70
27779;DHT22;30234;48.090;11.464;2023-10-08T11:43:55;21.30;70.60
27779;DHT22;30234;48.090;11.464;2023-10-08T11:47:59;21.20;70.60
27779;DHT22;30234;48.090;11.464;2023-10-08T11:52:07;21.30;70.10
27779;DHT22;30234;48.090;11.464;2023-10-08T11:56:07;21.40;70.40
27779;DHT22;30234;48.090;11.464;2023-10-08T12:00:13;21.30;70.30
27779;DHT22;30234;48.090;11.464;2023-10-08T12:04:19;21.60;70.20
27779;DHT22;30234;48.090;11.464;2023-10-08T12:08:23;21.50;70.00
27779;DHT22;30234;48.090;11.464;2023-10-08T12:12:24;21.40;70.00
27779;DHT22;30234;48.090;11.464;2023-10-08T12:16:25;21.50;70.10
27779;DHT22;30234;48.090;11.464;2023-10-08T12:20:29;21.60;69.80
27779;DHT22;30234;48.090;11.464;2023-10-08T12:24:35;21.50;69.50
27779;DHT22;30234;48.090;11.464;2023-10-08T12:28:36;21.40;70.30
27779;DHT22;30234;48.090;11.464;2023-10-08T12:32:37;21.40;70.50
27779;DHT22;30234;48.090;11.464;2023-10-08T12:36:42;21.30;70.30
27779;DHT22;30234;48.090;11.464;2023-10-08T12:40:43;21.20;70.40
27779;DHT22;30234;48.090;11.464;2023-10-08T12:45:07;21.10;71.10
27779;DHT22;30234;48.090;11.464;2023-10-08T12:49:13;21.00;71.20
27779;DHT22;30234;48.090;11.464;2023-10-08T12:53:13;20.80;71.90
27779;DHT22;30234;48.090;11.464;2023-10-08T12:57:16;20.70;72.30
27779;DHT22;30234;48.090;11.464;2023-10-08T13:01:19;20.80;72.40
27779;DHT22;30234;48.090;11.464;2023-10-08T13:05:24;20.80;72.20
27779;DHT22;30234;48.090;11.464;2023-10-08T13:09:29;20.90;72.70
27779;DHT22;30234;48.090;11.464;2023-10-08T13:13:37;20.90;72.30
27779;DHT22;30234;48.090;11.464;2023-10-08T13:17:38;20.90;71.70
27779;DHT22;30234;48.090;11.464;2023-10-08T13:21:43;20.90;72.00
27779;DHT22;30234;48.090;11.464;2023-10-08T13:25:44;21.00;72.10
27779;DHT22;30234;48.090;11.464;2023-10-08T13:29:47;21.10;71.70
27779;DHT22;30234;48.090;11.464;2023-10-08T13:33:48;21.10;70.80
27779;DHT22;30234;48.090;11.464;2023-10-08T13:37:52;21.30;70.10
27779;DHT22;30234;48.090;11.464;2023-10-08T13:41:53;21.60;70.10
27779;DHT22;30234;48.090;11.464;2023-10-08T13:45:57;21.70;69.50
27779;DHT22;30234;48.090;11.464;2023-10-08T13:49:58;21.90;68.70
27779;DHT22;30234;48.090;11.464;2023-10-08T13:53:59;22.10;68.50
27779;DHT22;30234;48.090;11.464;2023-10-08T13:58:00;22.10;69.50
27779;DHT22;30234;48.090;11.464;2023-10-08T14:02:02;21.90;69.40
27779;DHT22;30234;48.090;11.464;2023-10-08T14:06:17;21.80;70.70
27779;DHT22;30234;48.090;11.464;2023-10-08T14:10:20;22.00;70.50
27779;DHT22;30234;48.090;11.464;2023-10-08T14:14:30;22.20;70.60
27779;DHT22;30234;48.090;11.464;2023-10-08T14:18:31;22.20;70.60
27779;DHT22;30234;48.090;11.464;2023-10-08T14:22:41;22.30;70.00
27779;DHT22;30234;48.090;11.464;2023-10-08T14:26:42;22.40;70.20
27779;DHT22;30234;48.090;11.464;2023-10-08T14:30:44;22.10;71.30
27779;DHT22;30234;48.090;11.464;2023-10-08T14:34:46;22.10;70.90
27779;DHT22;30234;48.090;11.464;2023-10-08T14:38:47;21.90;71.60
27779;DHT22;30234;48.090;11.464;2023-10-08T14:43:07;21.60;72.50
27779;DHT22;30234;48.090;11.464;2023-10-08T14:47:12;21.40;74.10
27779;DHT22;30234;48.090;11.464;2023-10-08T14:51:13;21.10;75.50
27779;DHT22;30234;48.090;11.464;2023-10-08T14:55:20;20.90;76.60
27779;DHT22;30234;48.090;11.464;2023-10-08T14:59:23;20.70;77.90
27779;DHT22;30234;48.090;11.464;2023-10-08T15:03:24;20.40;78.80
27779;DHT22;30234;48.090;11.464;2023-10-08T15:07:27;20.30;80.50
27779;DHT22;30234;48.090;11.464;2023-10-08T15:11:28;20.30;81.10
27779;DHT22;30234;48.090;11.464;2023-10-08T15:15:31;20.10;82.80
27779;DHT22;30234;48.090;11.464;2023-10-08T15:19:35;19.80;83.60
27779;DHT22;30234;48.090;11.464;2023-10-08T15:23:36;19.60;85.20
27779;DHT22;30234;48.090;11.464;2023-10-08T15:27:39;19.40;87.50
27779;DHT22;30234;48.090;11.464;2023-10-08T15:31:42;19.30;88.30
27779;DHT22;30234;48.090;11.464;2023-10-08T15:35:43;19.20;88.90
27779;DHT22;30234;48.090;11.464;2023-10-08T15:39:44;19.10;90.00
27779;DHT22;30234;48.090;11.464;2023-10-08T15:43:51;19.00;90.70
27779;DHT22;30234;48.090;11.464;2023-10-08T15:47:52;19.00;91.10
27779;DHT22;30234;48.090;11.464;2023-10-08T15:51:53;18.80;91.60
27779;DHT22;30234;48.090;11.464;2023-10-08T15:55:54;18.70;92.30
27779;DHT22;30234;48.090;11.464;2023-10-08T15:59:56;18.60;92.90
27779;DHT22;30234;48.090;11.464;2023-10-08T16:03:57;18.40;94.00
27779;DHT22;30234;48.090;11.464;2023-10-08T16:07:58;18.20;94.40
27779;DHT22;30234;48.090;11.464;2023-10-08T16:11:59;18.20;95.70
27779;DHT22;30234;48.090;11.464;2023-10-08T16:16:00;18.00;99.00
27779;DHT22;30234;48.090;11.464;2023-10-08T16:20:01;17.80;99.90
27779;DHT22;30234;48.090;11.464;2023-10-08T16:24:14;17.60;99.90
27779;DHT22;30234;48.090;11.464;2023-10-08T16:28:15;17.40;99.90
27779;DHT22;30234;48.090;11.464;2023-10-08T16:32:18;17.30;99.90
27779;DHT22;30234;48.090;11.464;2023-10-08T16:36:19;17.30;99.90
27779;DHT22;30234;48.090;11.464;2023-10-08T16:40:21;17.00;99.90
27779;DHT22;30234;48.090;11.464;2023-10-08T16:44:22;16.90;99.90
27779;DHT22;30234;48.090;11.464;2023-10-08T16:48:23;16.70;99.90
27779;DHT22;30234;48.090;11.464;2023-10-08T16:52:25;16.40;99.90
27779;DHT22;30234;48.090;11.464;2023-10-08T16:56:27;16.30;99.90
27779;DHT22;30234;48.090;11.464;2023-10-08T17:00:28;16.10;99.90
27779;DHT22;30234;48.090;11.464;2023-10-08T17:04:29;16.10;99.90
27779;DHT22;30234;48.090;11.464;2023-10-08T17:08:30;16.00;99.90
27779;DHT22;30234;48.090;11.464;2023-10-08T17:12:33;15.90;99.90
27779;DHT22;30234;48.090;11.464;2023-10-08T17:16:34;15.90;99.90
27779;DHT22;30234;48.090;11.464;2023-10-08T17:20:35;15.80;99.90
27779;DHT22;30234;48.090;11.464;2023-10-08T17:24:36;15.70;99.90
27779;DHT22;30234;48.090;11.464;2023-10-08T17:28:37;15.70;99.90
27779;DHT22;30234;48.090;11.464;2023-10-08T17:32:39;15.80;99.90
27779;DHT22;30234;48.090;11.464;2023-10-08T17:36:40;15.80;99.90
27779;DHT22;30234;48.090;11.464;2023-10-08T17:40:43;15.80;99.90
27779;DHT22;30234;48.090;11.464;2023-10-08T17:44:45;15.70;99.90
27779;DHT22;30234;48.090;11.464;2023-10-08T17:48:46;15.70;99.90
27779;DHT22;30234;48.090;11.464;2023-10-08T17:52:47;15.60;99.90
27779;DHT22;30234;48.090;11.464;2023-10-08T17:56:49;15.60;99.90
27779;DHT22;30234;48.090;11.464;2023-10-08T18:00:54;15.40;99.90
27779;DHT22;30234;48.090;11.464;2023-10-08T18:04:55;15.20;99.90
27779;DHT22;30234;48.090;11.464;2023-10-08T18:08:56;15.20;99.90
27779;DHT22;30234;48.090;11.464;2023-10-08T18:12:57;15.20;99.90
27779;DHT22;30234;48.090;11.464;2023-10-08T18:16:59;15.10;99.90
27779;DHT22;30234;48.090;11.464;2023-10-08T18:21:00;15.20;99.90
27779;DHT22;30234;48.090;11.464;2023-10-08T18:25:02;15.30;99.90
27779;DHT22;30234;48.090;11.464;2023-10-08T18:29:03;15.30;99.90
27779;DHT22;30234;48.090;11.464;2023-10-08T18:33:06;15.30;99.90
27779;DHT22;30234;48.090;11.464;2023-10-08T18:37:08;15.30;99.90
27779;DHT22;30234;48.090;11.464;2023-10-08T18:41:10;15.10;99.90
27779;DHT22;30234;48.090;11.464;2023-10-08T18:45:13;15.00;99.90
27779;DHT22;30234;48.090;11.464;2023-10-08T18:49:17;14.80;99.90
27779;DHT22;30234;48.090;11.464;2023-10-08T18:53:18;14.90;99.90
27779;DHT22;30234;48.090;11.464;2023-10-08T18:57:19;14.90;99.90
27779;DHT22;30234;48.090;11.464;2023-10-08T19:01:21;14.90;99.90
27779;DHT22;30234;48.090;11.464;2023-10-08T19:05:26;15.00;99.90
27779;DHT22;30234;48.090;11.464;2023-10-08T19:09:28;15.10;99.90
27779;DHT22;30234;48.090;11.464;2023-10-08T19:13:29;15.00;99.90
27779;DHT22;30234;48.090;11.464;2023-10-08T19:17:30;15.00;99.90
27779;DHT22;30234;48.090;11.464;2023-10-08T19:21:33;15.10;99.90
27779;DHT22;30234;48.090;11.464;2023-10-08T19:25:37;15.10;99.90
27779;DHT22;30234;48.090;11.464;2023-10-08T19:29:40;15.00;99.90
27779;DHT22;30234;48.090;11.464;2023-10-08T19:33:41;15.10;99.90
27779;DHT22;30234;48.090;11.464;2023-10-08T19:37:43;15.20;99.90
27779;DHT22;30234;48.090;11.464;2023-10-08T19:41:44;15.10;99.90
27779;DHT22;30234;48.090;11.464;2023-10-08T19:45:46;15.20;99.90
27779;DHT22;30234;48.090;11.464;2023-10-08T19:49:48;15.00;99.90
27779;DHT22;30234;48.090;11.464;2023-10-08T19:53:49;14.90;99.90
27779;DHT22;30234;48.090;11.464;2023-10-08T19:57:53;14.80;99.90
27779;DHT22;30234;48.090;11.464;2023-10-08T20:01:54;14.90;99.90
27779;DHT22;30234;48.090;11.464;2023-10-08T20:05:55;15.00;99.90
27779;DHT22;30234;48.090;11.464;2023-10-08T20:09:57;15.00;99.90
27779;DHT22;30234;48.090;11.464;2023-10-08T20:13:58;14.90;99.90
27779;DHT22;30234;48.090;11.464;2023-10-08T20:18:00;14.80;99.90
27779;DHT22;30234;48.090;11.464;2023-10-08T20:22:01;14.70;99.90
27779;DHT22;30234;48.090;11.464;2023-10-08T20:26:12;14.60;99.90
27779;DHT22;30234;48.090;11.464;2023-10-08T20:30:14;14.50;99.90
27779;DHT22;30234;48.090;11.464;2023-10-08T20:34:22;14.40;99.90
27779;DHT22;30234;48.090;11.464;2023-10-08T20:38:23;14.30;99.90
27779;DHT22;30234;48.090;11.464;2023-10-08T20:42:27;14.20;99.90
27779;DHT22;30234;48.090;11.464;2023-10-08T20:46:31;14.00;99.90
27779;DHT22;30234;48.090;11.464;2023-10-08T20:50:33;13.80;99.90
27779;DHT22;30234;48.090;11.464;2023-10-08T20:54:35;13.60;99.90
27779;DHT22;30234;48.090;11.464;2023-10-08T20:58:36;13.50;99.90
27779;DHT22;30234;48.090;11.464;2023-10-08T21:02:38;13.40;99.90
27779;DHT22;30234;48.090;11.464;2023-10-08T21:06:39;13.40;99.90
27779;DHT22;30234;48.090;11.464;2023-10-08T21:10:40;13.30;99.90
27779;DHT22;30234;48.090;11.464;2023-10-08T21:14:43;13.40;99.90
27779;DHT22;30234;48.090;11.464;2023-10-08T21:18:44;13.40;99.90
27779;DHT22;30234;48.090;11.464;2023-10-08T21:22:46;13.30;99.90
27779;DHT22;30234;48.090;11.464;2023-10-08T21:26:47;13.30;99.90
27779;DHT22;30234;48.090;11.464;2023-10-08T21:30:49;13.20;99.90
27779;DHT22;30234;48.090;11.464;2023-10-08T21:34:50;13.00;99.90
27779;DHT22;30234;48.090;11.464;2023-10-08T21:38:51;12.90;99.90
27779;DHT22;30234;48.090;11.464;2023-10-08T21:42:52;13.10;99.90
27779;DHT22;30234;48.090;11.464;2023-10-08T21:46:53;13.20;99.90
27779;DHT22;30234;48.090;11.464;2023-10-08T21:50:54;13.00;99.90
27779;DHT22;30234;48.090;11.464;2023-10-08T21:54:55;12.90;99.90
27779;DHT22;30234;48.090;11.464;2023-10-08T21:58:56;12.80;99.90
27779;DHT22;30234;48.090;11.464;2023-10-08T22:02:59;12.70;99.90
27779;DHT22;30234;48.090;11.464;2023-10-08T22:07:00;12.60;99.90
27779;DHT22;30234;48.090;11.464;2023-10-08T22:11:06;12.70;99.90
27779;DHT22;30234;48.090;11.464;2023-10-08T22:15:08;12.60;99.90
27779;DHT22;30234;48.090;11.464;2023-10-08T22:19:26;12.50;99.90
27779;DHT22;30234;48.090;11.464;2023-10-08T22:23:31;12.40;99.90
27779;DHT22;30234;48.090;11.464;2023-10-08T22:27:35;12.20;99.90
27779;DHT22;30234;48.090;11.464;2023-10-08T22:31:39;12.10;99.90
27779;DHT22;30234;48.090;11.464;2023-10-08T22:35:46;11.90;99.90
27779;DHT22;30234;48.090;11.464;2023-10-08T22:39:48;11.80;99.90
27779;DHT22;30234;48.090;11.464;2023-10-08T22:43:52;11.80;99.90
27779;DHT22;30234;48.090;11.464;2023-10-08T22:47:54;11.70;99.90
27779;DHT22;30234;48.090;11.464;2023-10-08T22:52:00;11.70;99.90
27779;DHT22;30234;48.090;11.464;2023-10-08T22:56:04;11.70;99.90
27779;DHT22;30234;48.090;11.464;2023-10-08T23:00:07;11.70;99.90
27779;DHT22;30234;48.090;11.464;2023-10-08T23:04:11;11.70;99.90
27779;DHT22;30234;48.090;11.464;2023-10-08T23:08:12;11.80;99.90
27779;DHT22;30234;48.090;11.464;2023-10-08T23:12:15;11.80;99.90
27779;DHT22;30234;48.090;11.464;2023-10-08T23:16:19;11.70;99.90
27779;DHT22;30234;48.090;11.464;2023-10-08T23:20:20;11.60;99.90
27779;DHT22;30234;48.090;11.464;2023-10-08T23:24:21;11.60;99.90
27779;DHT22;30234;48.090;11.464;2023-10-08T23:28:22;11.60;99.90
27779;DHT22;30234;48.090;11.464;2023-10-08T23:32:23;11.50;99.90
27779;DHT22;30234;48.090;11.464;2023-10-08T23:36:27;11.40;99.90
27779;DHT22;30234;48.090;11.464;2023-10-08T23:40:34;11.20;99.90
27779;DHT22;30234;48.090;11.464;2023-10-08T23:44:45;11.10;99.90
27779;DHT22;30234;48.090;11.464;2023-10-08T23:48:48;11.00;99.90
27779;DHT22;30234;48.090;11.464;2023-10-08T23:52:57;11.00;99.90
27779;DHT22;30234;48.090;11.464;2023-10-08T23:57:01;11.00;99.90
